Time;durP1;ratioP1;P1;durP2;ratioP2;P2;SDS_P1;SDS_P2;PMS_P1;PMS_P2;Temp;Humidity;BMP_temperature;BMP_pressure;BME280_temperature;BME280_humidity;BME280_pressure;Samples;Min_cycle;Max_cycle;Signal;HPM_P1;HPM_P2
2023/09/06 03:02:24;;;;;;;;;;;16.90;99.90;;;;;;5150644;23;20370;-74
2023/09/06 03:04:55;;;;;;;;;;;16.80;99.90;;;;;;5012306;28;20032;-78
2023/09/06 03:07:21;;;;;;;;;;;16.80;99.90;;;;;;5012270;28;19928;-77
2023/09/06 03:09:48;;;;;;;;;;;16.80;99.90;;;;;;5013167;28;19921;-76
2023/09/06 03:12:14;;;;;;;;;;;16.80;99.90;;;;;;4995531;28;20016;-77
2023/09/06 03:14:48;;;;;;;;;;;16.70;99.90;;;;;;4995417;28;20001;-76
2023/09/06 03:17:14;;;;;;;;;;;16.70;99.90;;;;;;4998028;28;20031;-77
2023/09/06 03:19:41;;;;;;;;;;;16.70;99.90;;;;;;4997449;28;20255;-76
2023/09/06 03:22:09;;;;;;;;;;;16.70;99.90;;;;;;4995621;28;20303;-79
2023/09/06 03:24:40;;;;;;;;;;;16.70;99.90;;;;;;4995723;28;19922;-77
2023/09/06 03:27:15;;;;;;;;;;;16.70;99.90;;;;;;4995760;28;20398;-76
2023/09/06 03:29:41;;;;;;;;;;;16.80;99.90;;;;;;4979835;28;19921;-75
2023/09/06 03:32:10;;;;;;;;;;;16.80;99.90;;;;;;4995821;28;20287;-75
2023/09/06 03:34:36;;;;;;;;;;;16.80;99.90;;;;;;4995555;28;19926;-74
2023/09/06 03:37:04;;;;;;;;;;;16.80;99.90;;;;;;4996271;28;19929;-75
2023/09/06 03:39:37;;;;;;;;;;;16.80;99.90;;;;;;4995861;28;19922;-76
2023/09/06 03:42:08;;;;;;;;;;;16.80;99.90;;;;;;4996902;28;19925;-73
2023/09/06 03:44:42;;;;;;;;;;;16.80;99.90;;;;;;4995803;28;19922;-73
2023/09/06 03:47:13;;;;;;;;;;;16.80;99.90;;;;;;4995455;28;19922;-79
2023/09/06 03:49:39;;;;;;;;;;;16.80;99.90;;;;;;4995688;28;20310;-79
2023/09/06 03:52:05;;;;;;;;;;;16.80;99.90;;;;;;4995502;28;19922;-77
2023/09/06 03:54:34;;;;;;;;;;;16.80;99.90;;;;;;4995526;28;20356;-79
2023/09/06 03:57:03;;;;;;;;;;;16.90;99.90;;;;;;4996417;28;19968;-77
2023/09/06 03:59:30;;;;;;;;;;;16.90;99.90;;;;;;4995522;28;20353;-75
2023/09/06 04:01:55;;;;;;;;;;;16.80;99.90;;;;;;4995088;28;19980;-78
2023/09/06 04:04:21;;;;;;;;;;;16.90;99.90;;;;;;4977777;28;20367;-78
2023/09/06 04:06:47;;;;;;;;;;;16.90;99.90;;;;;;4993993;28;19980;-76
2023/09/06 04:09:13;;;;;;;;;;;16.90;99.90;;;;;;4993910;28;19922;-76
2023/09/06 04:11:42;;;;;;;;;;;16.90;99.90;;;;;;4993815;28;19922;-76
2023/09/06 04:14:07;;;;;;;;;;;17.00;99.90;;;;;;4995110;28;19921;-76
2023/09/06 04:16:37;;;;;;;;;;;17.00;99.90;;;;;;4995021;28;20287;-76
2023/09/06 04:19:03;;;;;;;;;;;17.00;99.90;;;;;;4995314;28;19922;-77
2023/09/06 04:21:28;;;;;;;;;;;17.00;99.90;;;;;;4993689;28;20065;-75
2023/09/06 04:23:54;;;;;;;;;;;17.00;99.90;;;;;;4993548;28;19948;-78
2023/09/06 04:26:20;;;;;;;;;;;17.10;99.90;;;;;;4992714;28;19929;-75
2023/09/06 04:28:46;;;;;;;;;;;17.10;99.90;;;;;;4993957;28;19977;-75
2023/09/06 04:31:12;;;;;;;;;;;17.10;99.90;;;;;;4995060;28;19921;-75
2023/09/06 04:33:37;;;;;;;;;;;17.10;99.90;;;;;;4993870;28;19976;-79
2023/09/06 04:36:04;;;;;;;;;;;17.00;99.90;;;;;;4994642;28;20311;-76
2023/09/06 04:38:31;;;;;;;;;;;17.00;99.90;;;;;;4977199;28;20375;-76
2023/09/06 04:40:56;;;;;;;;;;;17.00;99.90;;;;;;4993401;28;19972;-77
2023/09/06 04:43:22;;;;;;;;;;;17.00;99.90;;;;;;4994641;28;20334;-74
2023/09/06 04:45:49;;;;;;;;;;;17.00;99.90;;;;;;4993402;28;19921;-77
2023/09/06 04:48:17;;;;;;;;;;;17.00;99.90;;;;;;4993886;28;19922;-78
2023/09/06 04:50:44;;;;;;;;;;;16.90;99.90;;;;;;4993057;28;19922;-78
2023/09/06 04:53:11;;;;;;;;;;;16.90;99.90;;;;;;4993426;28;19988;-77
2023/09/06 04:55:37;;;;;;;;;;;16.90;99.90;;;;;;4993101;28;19922;-75
2023/09/06 04:58:03;;;;;;;;;;;16.90;99.90;;;;;;4993068;28;19922;-76
2023/09/06 05:00:35;;;;;;;;;;;16.90;99.90;;;;;;4933070;28;1777966;-79
2023/09/06 05:03:01;;;;;;;;;;;16.90;99.90;;;;;;4993734;28;20024;-75
2023/09/06 05:05:27;;;;;;;;;;;17.00;99.90;;;;;;4995361;28;20398;-77
2023/09/06 05:07:53;;;;;;;;;;;17.00;99.90;;;;;;4993965;28;19922;-74
2023/09/06 05:10:18;;;;;;;;;;;17.00;99.90;;;;;;4993928;28;19921;-74
2023/09/06 05:12:45;;;;;;;;;;;17.00;99.90;;;;;;4977976;28;19922;-74
2023/09/06 05:15:12;;;;;;;;;;;17.00;99.90;;;;;;4977550;28;20004;-75
2023/09/06 05:17:41;;;;;;;;;;;17.00;99.90;;;;;;4993733;28;20020;-77
2023/09/06 05:20:42;;;;;;;;;;;17.00;99.90;;;;;;4993832;28;19972;-76
2023/09/06 05:23:10;;;;;;;;;;;16.90;99.90;;;;;;4957094;28;19926;-75
2023/09/06 05:25:36;;;;;;;;;;;16.90;99.90;;;;;;4986360;28;19926;-77
2023/09/06 05:28:05;;;;;;;;;;;16.90;99.90;;;;;;4994916;28;20405;-76
2023/09/06 05:30:34;;;;;;;;;;;17.00;99.90;;;;;;4977078;28;20387;-75
2023/09/06 05:32:59;;;;;;;;;;;17.00;99.90;;;;;;4993417;28;20301;-76
2023/09/06 05:35:25;;;;;;;;;;;17.00;99.90;;;;;;4993317;28;19980;-76
2023/09/06 05:37:51;;;;;;;;;;;17.00;99.90;;;;;;4994601;28;19921;-75
2023/09/06 05:40:22;;;;;;;;;;;17.00;99.90;;;;;;4993474;28;19922;-77
2023/09/06 05:42:48;;;;;;;;;;;17.10;99.90;;;;;;4993459;28;19985;-75
2023/09/06 05:45:13;;;;;;;;;;;17.10;99.90;;;;;;4993344;28;19921;-75
2023/09/06 05:47:39;;;;;;;;;;;17.10;99.90;;;;;;4993115;28;19968;-75
2023/09/06 05:50:05;;;;;;;;;;;17.20;99.90;;;;;;4977004;28;19922;-76
2023/09/06 05:52:31;;;;;;;;;;;17.20;99.90;;;;;;4994909;28;19929;-75
2023/09/06 05:54:56;;;;;;;;;;;17.20;99.90;;;;;;4993058;28;20264;-75
2023/09/06 05:57:22;;;;;;;;;;;17.20;99.90;;;;;;4992902;28;19985;-74
2023/09/06 05:59:47;;;;;;;;;;;17.30;99.90;;;;;;4992966;28;20024;-75
2023/09/06 06:02:14;;;;;;;;;;;17.30;99.90;;;;;;4993186;28;19933;-75
2023/09/06 06:04:41;;;;;;;;;;;17.30;99.90;;;;;;4994242;28;20356;-75
2023/09/06 06:07:06;;;;;;;;;;;17.30;99.90;;;;;;4993211;28;19947;-74
2023/09/06 06:09:33;;;;;;;;;;;17.40;99.90;;;;;;4992818;28;20382;-74
2023/09/06 06:11:58;;;;;;;;;;;17.40;99.90;;;;;;4993139;28;20306;-75
2023/09/06 06:14:27;;;;;;;;;;;17.40;99.90;;;;;;4992706;28;19980;-75
2023/09/06 06:16:53;;;;;;;;;;;17.50;99.90;;;;;;4994576;28;20352;-74
2023/09/06 06:19:19;;;;;;;;;;;17.60;99.90;;;;;;4993957;28;19921;-75
2023/09/06 06:21:45;;;;;;;;;;;17.60;99.90;;;;;;4993028;28;20359;-75
2023/09/06 06:24:12;;;;;;;;;;;17.60;99.90;;;;;;4992697;28;20248;-76
2023/09/06 06:26:37;;;;;;;;;;;17.70;99.90;;;;;;4992962;28;19921;-74
2023/09/06 06:29:03;;;;;;;;;;;17.70;99.90;;;;;;4992568;28;19922;-75
2023/09/06 06:31:28;;;;;;;;;;;17.80;99.90;;;;;;4992360;28;19922;-75
2023/09/06 06:33:55;;;;;;;;;;;17.80;99.90;;;;;;4992491;28;19998;-76
2023/09/06 06:36:21;;;;;;;;;;;17.90;99.90;;;;;;4992554;28;19972;-77
2023/09/06 06:38:47;;;;;;;;;;;18.00;99.90;;;;;;4992857;28;19926;-76
2023/09/06 06:41:22;;;;;;;;;;;18.00;99.90;;;;;;4992497;28;19929;-76
2023/09/06 06:43:48;;;;;;;;;;;18.10;99.90;;;;;;4993789;28;19973;-76
2023/09/06 06:46:27;;;;;;;;;;;18.10;99.90;;;;;;4992659;28;19926;-76
2023/09/06 06:48:53;;;;;;;;;;;18.20;99.90;;;;;;4978426;28;19922;-76
2023/09/06 06:51:19;;;;;;;;;;;18.30;99.90;;;;;;4996400;28;19965;-77
2023/09/06 06:53:44;;;;;;;;;;;18.30;99.90;;;;;;4996366;28;19922;-76
2023/09/06 06:56:10;;;;;;;;;;;18.40;99.90;;;;;;4996289;28;19928;-76
2023/09/06 06:58:35;;;;;;;;;;;18.40;99.90;;;;;;4996244;28;19965;-76
2023/09/06 07:01:01;;;;;;;;;;;18.50;99.90;;;;;;4996068;28;19972;-76
2023/09/06 07:03:26;;;;;;;;;;;18.60;99.90;;;;;;4996046;28;20028;-76
2023/09/06 07:05:52;;;;;;;;;;;18.70;99.90;;;;;;4996093;28;19921;-75
2023/09/06 07:08:17;;;;;;;;;;;18.70;99.90;;;;;;4996135;28;19948;-75
2023/09/06 07:10:43;;;;;;;;;;;18.80;99.90;;;;;;4995991;28;19921;-77
2023/09/06 07:13:09;;;;;;;;;;;18.90;99.90;;;;;;4997286;28;20287;-75
2023/09/06 07:15:35;;;;;;;;;;;18.90;99.90;;;;;;4995971;28;20290;-75
2023/09/06 07:18:04;;;;;;;;;;;19.00;99.90;;;;;;4995930;28;19997;-76
2023/09/06 07:20:30;;;;;;;;;;;19.10;99.90;;;;;;4995856;28;19990;-76
2023/09/06 07:22:55;;;;;;;;;;;19.20;99.90;;;;;;4995858;28;19941;-76
2023/09/06 07:25:21;;;;;;;;;;;19.30;99.90;;;;;;4996406;28;19921;-75
2023/09/06 07:27:47;;;;;;;;;;;19.40;99.90;;;;;;4996030;28;20360;-75
2023/09/06 07:30:12;;;;;;;;;;;19.40;99.90;;;;;;4996057;28;20097;-75
2023/09/06 07:32:38;;;;;;;;;;;19.40;99.90;;;;;;4996039;28;19922;-75
2023/09/06 07:35:05;;;;;;;;;;;19.50;99.90;;;;;;4997125;28;20322;-77
2023/09/06 07:37:31;;;;;;;;;;;19.60;99.90;;;;;;4995813;28;19972;-75
2023/09/06 07:40:00;;;;;;;;;;;19.70;99.90;;;;;;4995538;28;19926;-75
2023/09/06 07:42:25;;;;;;;;;;;19.80;99.90;;;;;;4995661;28;20007;-75
2023/09/06 07:44:51;;;;;;;;;;;19.90;99.90;;;;;;4995376;28;20370;-76
2023/09/06 07:47:17;;;;;;;;;;;20.00;99.90;;;;;;4995384;28;19922;-75
2023/09/06 07:49:42;;;;;;;;;;;20.10;99.90;;;;;;4996786;28;19989;-76
2023/09/06 07:52:08;;;;;;;;;;;20.20;99.90;;;;;;4978879;28;19976;-75
2023/09/06 07:54:34;;;;;;;;;;;20.20;99.90;;;;;;4996858;28;19922;-75
2023/09/06 07:56:59;;;;;;;;;;;20.30;99.90;;;;;;4995396;28;20436;-75
2023/09/06 07:59:25;;;;;;;;;;;20.40;99.90;;;;;;4996402;28;20291;-77
2023/09/06 08:01:51;;;;;;;;;;;20.50;99.90;;;;;;4996489;28;19922;-77
2023/09/06 08:04:19;;;;;;;;;;;20.60;99.90;;;;;;4995226;28;19972;-78
2023/09/06 08:06:46;;;;;;;;;;;20.60;99.90;;;;;;4996524;28;19922;-77
2023/09/06 08:09:12;;;;;;;;;;;20.70;99.90;;;;;;4994940;28;19928;-76
2023/09/06 08:11:37;;;;;;;;;;;20.80;99.90;;;;;;4994886;28;19964;-76
2023/09/06 08:14:03;;;;;;;;;;;20.90;99.90;;;;;;4994886;28;19978;-77
2023/09/06 08:16:29;;;;;;;;;;;20.90;99.90;;;;;;4995395;28;19944;-78
2023/09/06 08:18:56;;;;;;;;;;;21.00;99.90;;;;;;4994829;28;20387;-77
2023/09/06 08:21:21;;;;;;;;;;;21.10;99.90;;;;;;4995040;28;19945;-80
2023/09/06 08:23:47;;;;;;;;;;;21.20;99.90;;;;;;4994652;28;20372;-75
2023/09/06 08:26:13;;;;;;;;;;;21.20;99.90;;;;;;4994750;28;19926;-77
2023/09/06 08:28:39;;;;;;;;;;;21.30;99.90;;;;;;4994915;28;19922;-75
2023/09/06 08:31:05;;;;;;;;;;;21.40;99.90;;;;;;4994802;28;19944;-79
2023/09/06 08:33:31;;;;;;;;;;;21.50;99.90;;;;;;4994524;28;20380;-78
2023/09/06 08:35:58;;;;;;;;;;;21.60;99.90;;;;;;4995749;28;20356;-79
2023/09/06 08:38:23;;;;;;;;;;;21.70;99.90;;;;;;4994516;28;19929;-76
2023/09/06 08:40:49;;;;;;;;;;;21.80;99.90;;;;;;4994650;28;20331;-77
2023/09/06 08:43:18;;;;;;;;;;;21.90;99.90;;;;;;4994579;28;20294;-76
2023/09/06 08:45:43;;;;;;;;;;;22.00;99.90;;;;;;4995636;28;19929;-79
2023/09/06 08:48:10;;;;;;;;;;;22.10;99.90;;;;;;4994391;28;19922;-75
2023/09/06 08:50:36;;;;;;;;;;;22.20;99.90;;;;;;4995316;28;19922;-77
2023/09/06 08:53:01;;;;;;;;;;;22.20;99.90;;;;;;4994884;28;20260;-78
2023/09/06 08:55:27;;;;;;;;;;;22.40;99.90;;;;;;4995769;28;19929;-79
2023/09/06 08:57:53;;;;;;;;;;;22.50;99.90;;;;;;4977972;28;19921;-77
2023/09/06 09:00:20;;;;;;;;;;;22.60;99.90;;;;;;4995360;28;19961;-80
2023/09/06 09:02:46;;;;;;;;;;;22.70;99.90;;;;;;4995433;28;19948;-79
2023/09/06 09:05:12;;;;;;;;;;;22.80;99.90;;;;;;4994114;28;20418;-79
2023/09/06 09:07:37;;;;;;;;;;;22.90;99.90;;;;;;4978226;28;20008;-78
2023/09/06 09:10:07;;;;;;;;;;;23.00;99.90;;;;;;4995493;28;19925;-79
2023/09/06 09:12:34;;;;;;;;;;;23.20;99.90;;;;;;4993481;28;19949;-75
2023/09/06 09:15:00;;;;;;;;;;;23.30;99.90;;;;;;4993835;28;19929;-77
2023/09/06 09:17:26;;;;;;;;;;;23.40;99.90;;;;;;4994102;28;19921;-77
2023/09/06 09:19:52;;;;;;;;;;;23.60;99.90;;;;;;4993710;28;20387;-76
2023/09/06 09:22:22;;;;;;;;;;;23.70;99.90;;;;;;4995174;28;19932;-77
2023/09/06 09:24:47;;;;;;;;;;;23.80;99.90;;;;;;4994879;28;20283;-79
2023/09/06 09:27:13;;;;;;;;;;;23.80;99.90;;;;;;4994864;28;19922;-77
2023/09/06 09:29:39;;;;;;;;;;;24.00;99.90;;;;;;4977337;28;19922;-79
2023/09/06 09:32:05;;;;;;;;;;;24.10;99.90;;;;;;4993513;28;19929;-78
2023/09/06 09:34:31;;;;;;;;;;;24.20;99.90;;;;;;4993487;28;20299;-78
2023/09/06 09:36:57;;;;;;;;;;;24.30;99.90;;;;;;4995144;28;20008;-78
2023/09/06 09:39:26;;;;;;;;;;;24.50;99.90;;;;;;4994811;28;20038;-78
2023/09/06 09:41:52;;;;;;;;;;;24.60;99.90;;;;;;4993592;28;19922;-77
2023/09/06 09:44:19;;;;;;;;;;;24.70;99.90;;;;;;4993353;28;19933;-79
2023/09/06 09:46:45;;;;;;;;;;;24.70;99.90;;;;;;4994561;28;20272;-77
2023/09/06 09:49:12;;;;;;;;;;;24.80;99.90;;;;;;4994366;28;19929;-78
2023/09/06 09:51:38;;;;;;;;;;;24.90;99.90;;;;;;4995421;28;20430;-78
2023/09/06 09:54:04;;;;;;;;;;;25.00;99.90;;;;;;4994745;28;19926;-79
2023/09/06 09:56:31;;;;;;;;;;;25.10;99.90;;;;;;4993251;28;20479;-79
2023/09/06 09:58:57;;;;;;;;;;;25.30;99.90;;;;;;4994491;28;19932;-77
2023/09/06 10:01:22;;;;;;;;;;;25.30;99.90;;;;;;4994594;28;19925;-80
2023/09/06 10:03:49;;;;;;;;;;;25.40;99.90;;;;;;4994340;28;19925;-78
2023/09/06 10:06:16;;;;;;;;;;;25.50;99.90;;;;;;4994354;28;19922;-78
2023/09/06 10:08:43;;;;;;;;;;;25.60;99.90;;;;;;4994682;28;20008;-77
2023/09/06 10:11:09;;;;;;;;;;;25.70;99.90;;;;;;4993162;28;19928;-79
2023/09/06 10:13:37;;;;;;;;;;;25.90;99.90;;;;;;4993265;28;19921;-77
2023/09/06 10:16:03;;;;;;;;;;;26.00;99.90;;;;;;4994406;28;19973;-79
2023/09/06 10:18:29;;;;;;;;;;;26.00;99.90;;;;;;4994413;28;20013;-79
2023/09/06 10:20:55;;;;;;;;;;;26.10;99.90;;;;;;4993582;28;20410;-78
2023/09/06 10:23:21;;;;;;;;;;;26.20;99.90;;;;;;4993395;28;19933;-78
2023/09/06 10:25:51;;;;;;;;;;;26.30;99.90;;;;;;4993313;28;19922;-79
2023/09/06 10:28:19;;;;;;;;;;;26.30;99.90;;;;;;4994232;28;19929;-78
2023/09/06 10:30:51;;;;;;;;;;;26.40;99.90;;;;;;4993817;28;20275;-78
2023/09/06 10:33:30;;;;;;;;;;;26.40;99.90;;;;;;4994465;28;20371;-76
2023/09/06 10:36:03;;;;;;;;;;;26.50;99.90;;;;;;4993028;28;20652;-80
2023/09/06 10:38:30;;;;;;;;;;;26.60;99.90;;;;;;4994346;28;20374;-78
2023/09/06 10:40:55;;;;;;;;;;;26.70;99.90;;;;;;4994211;28;20001;-79
2023/09/06 10:43:25;;;;;;;;;;;26.80;99.90;;;;;;4993844;28;20355;-77
2023/09/06 10:45:58;;;;;;;;;;;26.90;99.90;;;;;;4992982;28;19922;-79
2023/09/06 10:48:24;;;;;;;;;;;27.00;99.90;;;;;;4992821;28;19929;-78
2023/09/06 10:51:09;;;;;;;;;;;27.00;99.90;;;;;;4992732;28;20409;-78
2023/09/06 10:53:38;;;;;;;;;;;27.10;99.90;;;;;;4976416;28;19980;-79
2023/09/06 10:56:05;;;;;;;;;;;27.20;99.90;;;;;;4992974;28;19922;-79
2023/09/06 10:58:34;;;;;;;;;;;27.20;99.90;;;;;;4992784;28;19922;-79
2023/09/06 11:01:09;;;;;;;;;;;27.30;99.90;;;;;;4993915;28;19945;-78
2023/09/06 11:03:35;;;;;;;;;;;27.30;99.90;;;;;;4993870;28;19929;-79
2023/09/06 11:06:04;;;;;;;;;;;27.30;99.90;;;;;;4976526;28;19922;-79
2023/09/06 11:08:31;;;;;;;;;;;27.40;99.90;;;;;;4993375;28;20267;-79
2023/09/06 11:11:00;;;;;;;;;;;27.50;99.90;;;;;;4993542;28;20343;-79
2023/09/06 11:13:28;;;;;;;;;;;27.50;99.90;;;;;;4992646;28;20437;-78
2023/09/06 11:15:55;;;;;;;;;;;27.50;99.90;;;;;;4976911;28;19922;-78
2023/09/06 11:18:20;;;;;;;;;;;27.70;99.90;;;;;;4992612;28;19929;-79
2023/09/06 11:20:47;;;;;;;;;;;27.70;99.90;;;;;;4992811;28;20298;-80
2023/09/06 11:23:13;;;;;;;;;;;27.80;99.90;;;;;;4992508;28;19926;-78
2023/09/06 11:25:38;;;;;;;;;;;27.80;99.90;;;;;;4992263;28;20402;-79
2023/09/06 11:28:14;;;;;;;;;;;27.90;99.90;;;;;;4976593;28;19922;-79
2023/09/06 11:30:40;;;;;;;;;;;27.90;99.90;;;;;;4992589;28;19921;-80
2023/09/06 11:33:10;;;;;;;;;;;28.00;99.90;;;;;;4993855;28;20434;-79
2023/09/06 11:35:40;;;;;;;;;;;28.00;99.90;;;;;;4996574;28;19933;-79
2023/09/06 11:38:09;;;;;;;;;;;28.20;99.90;;;;;;4997007;28;19972;-79
2023/09/06 11:40:35;;;;;;;;;;;28.30;99.90;;;;;;4996959;28;19922;-79
2023/09/06 11:43:05;;;;;;;;;;;28.30;99.90;;;;;;4995616;28;19925;-79
2023/09/06 11:45:32;;;;;;;;;;;28.30;99.90;;;;;;4996791;28;19921;-78
2023/09/06 11:48:04;;;;;;;;;;;28.40;99.90;;;;;;4997000;28;19926;-79
2023/09/06 11:50:29;;;;;;;;;;;28.40;99.90;;;;;;4996252;28;20271;-79
2023/09/06 11:52:58;;;;;;;;;;;28.50;99.90;;;;;;4996837;28;19929;-79
2023/09/06 11:55:24;;;;;;;;;;;28.50;99.90;;;;;;4995490;28;19921;-79
2023/09/06 11:57:52;;;;;;;;;;;28.50;99.90;;;;;;4996677;28;20361;-79
2023/09/06 12:00:27;;;;;;;;;;;28.50;99.90;;;;;;4996783;28;19928;-79
2023/09/06 12:03:01;;;;;;;;;;;28.60;99.90;;;;;;4995747;28;19925;-79
2023/09/06 12:05:26;;;;;;;;;;;28.60;99.90;;;;;;4996411;28;19926;-79
2023/09/06 12:07:55;;;;;;;;;;;28.70;99.90;;;;;;4995324;28;19988;-81
2023/09/06 12:10:21;;;;;;;;;;;28.70;99.90;;;;;;4996323;28;19928;-79
2023/09/06 12:12:48;;;;;;;;;;;28.80;99.90;;;;;;4996174;28;20307;-80
2023/09/06 12:15:14;;;;;;;;;;;28.80;99.90;;;;;;4996036;28;19929;-79
2023/09/06 12:17:49;;;;;;;;;;;28.80;99.90;;;;;;4995203;28;19922;-80
2023/09/06 12:20:15;;;;;;;;;;;28.80;99.90;;;;;;4995132;28;20047;-79
2023/09/06 12:22:41;;;;;;;;;;;28.80;99.90;;;;;;4995224;28;19995;-79
2023/09/06 12:25:07;;;;;;;;;;;28.90;99.90;;;;;;4994750;28;19957;-80
2023/09/06 12:27:32;;;;;;;;;;;29.00;99.90;;;;;;4978483;28;20012;-81
2023/09/06 12:29:58;;;;;;;;;;;29.00;99.90;;;;;;4995004;28;20259;-79
2023/09/06 12:32:23;;;;;;;;;;;29.00;99.90;;;;;;4995304;28;19929;-79
2023/09/06 12:34:49;;;;;;;;;;;29.10;99.90;;;;;;4994836;28;20424;-79
2023/09/06 12:37:17;;;;;;;;;;;29.10;99.90;;;;;;4995860;28;20407;-80
2023/09/06 12:39:43;;;;;;;;;;;29.20;99.90;;;;;;4995107;28;19969;-80
2023/09/06 12:42:09;;;;;;;;;;;29.20;99.90;;;;;;4995773;28;20402;-79
2023/09/06 12:44:34;;;;;;;;;;;29.30;99.90;;;;;;4994479;28;19921;-79
2023/09/06 12:47:16;;;;;;;;;;;29.30;99.90;;;;;;4995144;28;19977;-80
2023/09/06 12:49:42;;;;;;;;;;;29.40;99.90;;;;;;4995856;28;19928;-79
2023/09/06 12:52:07;;;;;;;;;;;29.40;99.90;;;;;;4995354;28;19922;-79
2023/09/06 12:54:33;;;;;;;;;;;29.50;99.90;;;;;;4994117;28;19973;-79
2023/09/06 12:56:58;;;;;;;;;;;29.50;99.90;;;;;;4995673;28;19972;-79
2023/09/06 12:59:24;;;;;;;;;;;29.50;99.90;;;;;;4994066;28;19983;-79
2023/09/06 13:01:49;;;;;;;;;;;29.50;99.90;;;;;;4986425;28;19922;-80
2023/09/06 13:04:15;;;;;;;;;;;29.60;99.90;;;;;;4974682;28;19934;-79
2023/09/06 13:06:40;;;;;;;;;;;29.60;99.90;;;;;;4974607;28;19922;-80
2023/09/06 13:09:06;;;;;;;;;;;29.60;99.90;;;;;;4975240;28;19926;-79
2023/09/06 13:11:32;;;;;;;;;;;29.60;99.90;;;;;;4974957;28;19926;-79
2023/09/06 13:13:57;;;;;;;;;;;29.70;99.90;;;;;;4975640;28;20284;-80
2023/09/06 13:16:23;;;;;;;;;;;29.70;99.90;;;;;;4974828;28;20280;-79
2023/09/06 13:18:48;;;;;;;;;;;29.70;99.90;;;;;;4974867;28;19976;-79
2023/09/06 13:21:14;;;;;;;;;;;29.70;99.90;;;;;;4974420;28;19929;-80
2023/09/06 13:23:40;;;;;;;;;;;29.80;99.90;;;;;;4975719;28;20431;-80
2023/09/06 13:26:06;;;;;;;;;;;29.80;99.90;;;;;;4974682;28;19922;-80
2023/09/06 13:28:33;;;;;;;;;;;29.80;99.90;;;;;;4974142;28;20012;-80
2023/09/06 13:30:59;;;;;;;;;;;29.80;99.90;;;;;;4975685;28;19923;-79
2023/09/06 13:33:25;;;;;;;;;;;29.90;99.90;;;;;;4974650;28;19945;-79
2023/09/06 13:35:50;;;;;;;;;;;29.90;99.90;;;;;;4974134;28;20013;-80
2023/09/06 13:38:16;;;;;;;;;;;29.90;99.90;;;;;;4974148;28;19969;-80
2023/09/06 13:40:42;;;;;;;;;;;30.00;99.90;;;;;;4973891;28;19973;-80
2023/09/06 13:43:07;;;;;;;;;;;30.00;99.90;;;;;;4974247;28;19998;-80
2023/09/06 13:45:33;;;;;;;;;;;30.00;99.90;;;;;;4975435;28;19993;-80
2023/09/06 13:47:58;;;;;;;;;;;30.00;99.90;;;;;;4975063;28;19934;-80
2023/09/06 13:50:24;;;;;;;;;;;30.00;99.90;;;;;;4973706;28;19929;-80
2023/09/06 13:52:49;;;;;;;;;;;30.00;99.90;;;;;;4973802;28;19922;-80
2023/09/06 13:55:15;;;;;;;;;;;30.00;99.90;;;;;;4973745;28;19929;-78
2023/09/06 13:57:41;;;;;;;;;;;30.00;99.90;;;;;;4974695;28;19922;-79
2023/09/06 14:00:11;;;;;;;;;;;30.00;99.90;;;;;;4974018;28;19922;-80
2023/09/06 14:02:37;;;;;;;;;;;30.10;99.90;;;;;;4973387;28;19981;-80
2023/09/06 14:05:03;;;;;;;;;;;30.10;99.90;;;;;;4973612;28;20379;-79
2023/09/06 14:07:29;;;;;;;;;;;30.10;99.90;;;;;;4974849;28;20000;-79
2023/09/06 14:09:56;;;;;;;;;;;30.10;99.90;;;;;;4975277;28;19969;-79
2023/09/06 14:12:22;;;;;;;;;;;30.10;99.90;;;;;;4975982;28;19929;-78
2023/09/06 14:14:47;;;;;;;;;;;30.20;99.90;;;;;;4974198;28;19922;-78
2023/09/06 14:17:13;;;;;;;;;;;30.20;99.90;;;;;;4973824;28;19922;-77
2023/09/06 14:19:38;;;;;;;;;;;30.20;99.90;;;;;;4975691;28;19922;-77
2023/09/06 14:22:09;;;;;;;;;;;30.30;99.90;;;;;;4973639;28;19922;-77
2023/09/06 14:24:35;;;;;;;;;;;30.30;99.90;;;;;;4973593;28;19926;-78
2023/09/06 14:27:01;;;;;;;;;;;30.30;99.90;;;;;;4974778;28;19929;-79
2023/09/06 14:29:26;;;;;;;;;;;30.20;99.90;;;;;;4973755;28;19926;-78
2023/09/06 14:31:55;;;;;;;;;;;30.30;99.90;;;;;;4974552;28;20272;-79
2023/09/06 14:34:20;;;;;;;;;;;30.20;99.90;;;;;;4973374;28;19926;-79
2023/09/06 14:36:46;;;;;;;;;;;30.30;99.90;;;;;;4973283;28;20017;-79
2023/09/06 14:39:11;;;;;;;;;;;30.30;99.90;;;;;;4972950;28;20041;-79
2023/09/06 14:41:37;;;;;;;;;;;30.30;99.90;;;;;;4973385;28;19974;-79
2023/09/06 14:44:03;;;;;;;;;;;30.30;99.90;;;;;;4973177;28;19930;-78
2023/09/06 14:46:28;;;;;;;;;;;30.20;99.90;;;;;;4973267;28;19922;-79
2023/09/06 14:48:54;;;;;;;;;;;30.20;99.90;;;;;;4973436;28;19922;-78
2023/09/06 14:51:19;;;;;;;;;;;30.30;99.90;;;;;;4973198;28;19929;-79
2023/09/06 14:53:46;;;;;;;;;;;30.30;99.90;;;;;;4973520;28;19922;-79
2023/09/06 14:56:13;;;;;;;;;;;30.30;99.90;;;;;;4973186;28;19922;-79
2023/09/06 14:58:39;;;;;;;;;;;30.30;99.90;;;;;;4973387;28;20363;-78
2023/09/06 15:01:05;;;;;;;;;;;30.30;99.90;;;;;;4973158;28;20120;-79
2023/09/06 15:03:31;;;;;;;;;;;30.30;99.90;;;;;;4974754;28;20423;-78
2023/09/06 15:05:58;;;;;;;;;;;30.30;99.90;;;;;;4973324;28;19926;-78
2023/09/06 15:08:24;;;;;;;;;;;30.20;99.90;;;;;;4972982;28;19926;-78
2023/09/06 15:10:49;;;;;;;;;;;30.20;99.90;;;;;;4977778;28;19922;-78
2023/09/06 15:13:15;;;;;;;;;;;30.20;99.90;;;;;;4976639;28;20268;-79
2023/09/06 15:15:42;;;;;;;;;;;30.20;99.90;;;;;;4976633;28;19922;-79
2023/09/06 15:18:08;;;;;;;;;;;30.20;99.90;;;;;;4977908;28;20048;-79
2023/09/06 15:20:34;;;;;;;;;;;30.20;99.90;;;;;;4976699;28;20402;-79
2023/09/06 15:23:02;;;;;;;;;;;30.10;99.90;;;;;;4976354;28;19926;-79
2023/09/06 15:25:29;;;;;;;;;;;30.10;99.90;;;;;;4976791;28;20291;-77
2023/09/06 15:27:54;;;;;;;;;;;30.10;99.90;;;;;;4976437;28;19923;-78
2023/09/06 15:30:20;;;;;;;;;;;30.10;99.90;;;;;;4960293;28;19922;-77
2023/09/06 15:32:45;;;;;;;;;;;30.10;99.90;;;;;;4976224;28;19926;-78
2023/09/06 15:35:13;;;;;;;;;;;30.10;99.90;;;;;;4976245;28;19978;-78
2023/09/06 15:37:54;;;;;;;;;;;30.10;99.90;;;;;;4977996;28;19922;-78
2023/09/06 15:40:20;;;;;;;;;;;30.10;99.90;;;;;;4977542;28;19928;-78
2023/09/06 15:42:45;;;;;;;;;;;30.10;99.90;;;;;;4976235;28;20294;-78
2023/09/06 15:45:11;;;;;;;;;;;30.00;99.90;;;;;;4976019;28;20026;-78
2023/09/06 15:47:37;;;;;;;;;;;29.90;99.90;;;;;;4977298;28;20008;-78
2023/09/06 15:50:03;;;;;;;;;;;29.90;99.90;;;;;;4976470;28;19922;-79
2023/09/06 15:52:30;;;;;;;;;;;29.90;99.90;;;;;;4975791;28;20298;-78
2023/09/06 15:54:56;;;;;;;;;;;29.90;99.90;;;;;;4976838;28;19922;-79
2023/09/06 15:57:22;;;;;;;;;;;29.90;99.90;;;;;;4975888;28;19961;-79
2023/09/06 15:59:48;;;;;;;;;;;29.90;99.90;;;;;;4977032;28;19922;-79
2023/09/06 16:02:13;;;;;;;;;;;29.80;99.90;;;;;;4975879;28;19922;-79
2023/09/06 16:04:39;;;;;;;;;;;29.80;99.90;;;;;;4976112;28;20394;-79
2023/09/06 16:07:05;;;;;;;;;;;29.80;99.90;;;;;;4976249;28;19922;-79
2023/09/06 16:09:30;;;;;;;;;;;29.80;99.90;;;;;;4977806;28;19922;-80
2023/09/06 16:11:56;;;;;;;;;;;29.70;99.90;;;;;;4975614;28;19930;-80
2023/09/06 16:14:23;;;;;;;;;;;29.70;99.90;;;;;;4976850;28;20020;-80
2023/09/06 16:16:48;;;;;;;;;;;29.60;99.90;;;;;;4976136;28;19929;-79
2023/09/06 16:19:14;;;;;;;;;;;29.50;99.90;;;;;;4977044;28;19922;-78
2023/09/06 16:21:39;;;;;;;;;;;29.50;99.90;;;;;;4975798;28;19922;-80
2023/09/06 16:24:05;;;;;;;;;;;29.40;99.90;;;;;;4975865;28;19933;-79
2023/09/06 16:26:31;;;;;;;;;;;29.30;99.90;;;;;;4975783;28;19925;-79
2023/09/06 16:28:57;;;;;;;;;;;29.20;99.90;;;;;;4976840;28;19926;-79
2023/09/06 16:31:24;;;;;;;;;;;29.10;99.90;;;;;;4974362;28;19926;-78
2023/09/06 16:33:50;;;;;;;;;;;29.00;99.90;;;;;;4976019;28;19922;-80
2023/09/06 16:36:16;;;;;;;;;;;28.90;99.90;;;;;;4975740;28;19949;-78
2023/09/06 16:38:41;;;;;;;;;;;28.90;99.90;;;;;;4975507;28;19922;-79
2023/09/06 16:41:09;;;;;;;;;;;28.70;99.90;;;;;;4975632;28;19968;-78
2023/09/06 16:43:34;;;;;;;;;;;28.60;99.90;;;;;;4975334;28;19981;-77
2023/09/06 16:46:00;;;;;;;;;;;28.50;99.90;;;;;;4975367;28;19922;-79
2023/09/06 16:48:25;;;;;;;;;;;28.40;99.90;;;;;;4976409;28;19922;-81
2023/09/06 16:50:51;;;;;;;;;;;28.30;99.90;;;;;;4976289;28;20025;-78
2023/09/06 16:53:17;;;;;;;;;;;28.20;99.90;;;;;;4975169;28;19996;-80
2023/09/06 16:55:42;;;;;;;;;;;28.00;99.90;;;;;;4975880;28;19930;-78
2023/09/06 16:58:08;;;;;;;;;;;27.90;99.90;;;;;;4975327;28;20364;-80
2023/09/06 17:00:34;;;;;;;;;;;27.80;99.90;;;;;;4976271;28;19922;-79
2023/09/06 17:02:59;;;;;;;;;;;27.70;99.90;;;;;;4974844;28;20004;-78
2023/09/06 17:05:25;;;;;;;;;;;27.50;99.90;;;;;;4974748;28;19922;-78
2023/09/06 17:07:51;;;;;;;;;;;27.50;99.90;;;;;;4976130;28;20261;-77
2023/09/06 17:10:19;;;;;;;;;;;27.30;99.90;;;;;;4975933;28;20384;-78
2023/09/06 17:12:49;;;;;;;;;;;27.20;99.90;;;;;;4974993;28;19922;-80
2023/09/06 17:15:15;;;;;;;;;;;27.10;99.90;;;;;;4974931;28;19922;-80